sensor_id;sensor_type;location;lat;lon;timestamp;P1;durP1;ratioP1;P2;durP2;ratioP2
1206;SDS011;593;53.184;8.216;2023-08-21T00:00:53;4.03;;;2.80;;
1206;SDS011;593;53.184;8.216;2023-08-21T00:03:19;2.80;;;2.00;;
1206;SDS011;593;53.184;8.216;2023-08-21T00:05:44;2.63;;;1.67;;
1206;SDS011;593;53.184;8.216;2023-08-21T00:08:09;3.43;;;1.60;;
1206;SDS011;593;53.184;8.216;2023-08-21T00:10:37;2.00;;;1.80;;
1206;SDS011;593;53.184;8.216;2023-08-21T00:13:03;2.00;;;1.80;;
1206;SDS011;593;53.184;8.216;2023-08-21T00:15:28;2.60;;;2.30;;
1206;SDS011;593;53.184;8.216;2023-08-21T00:17:53;3.50;;;2.30;;
1206;SDS011;593;53.184;8.216;2023-08-21T00:20:19;4.83;;;1.90;;
1206;SDS011;593;53.184;8.216;2023-08-21T00:22:45;3.23;;;1.80;;
1206;SDS011;593;53.184;8.216;2023-08-21T00:25:10;4.43;;;2.60;;
1206;SDS011;593;53.184;8.216;2023-08-21T00:27:35;4.30;;;2.80;;
1206;SDS011;593;53.184;8.216;2023-08-21T00:30:01;3.00;;;1.73;;
1206;SDS011;593;53.184;8.216;2023-08-21T00:32:26;5.60;;;2.20;;
1206;SDS011;593;53.184;8.216;2023-08-21T00:34:52;3.03;;;2.27;;
1206;SDS011;593;53.184;8.216;2023-08-21T00:37:17;4.83;;;2.33;;
1206;SDS011;593;53.184;8.216;2023-08-21T00:39:42;2.90;;;1.70;;
1206;SDS011;593;53.184;8.216;2023-08-21T00:42:07;2.57;;;2.03;;
1206;SDS011;593;53.184;8.216;2023-08-21T00:44:33;3.77;;;2.30;;
1206;SDS011;593;53.184;8.216;2023-08-21T00:46:58;2.37;;;1.50;;
1206;SDS011;593;53.184;8.216;2023-08-21T00:49:24;2.70;;;1.73;;
1206;SDS011;593;53.184;8.216;2023-08-21T00:51:49;2.90;;;2.00;;
1206;SDS011;593;53.184;8.216;2023-08-21T00:54:15;1.87;;;1.77;;
1206;SDS011;593;53.184;8.216;2023-08-21T00:56:40;4.80;;;1.57;;
1206;SDS011;593;53.184;8.216;2023-08-21T00:59:06;3.53;;;1.80;;
1206;SDS011;593;53.184;8.216;2023-08-21T01:01:32;5.13;;;1.90;;
1206;SDS011;593;53.184;8.216;2023-08-21T01:03:58;1.63;;;1.50;;
1206;SDS011;593;53.184;8.216;2023-08-21T01:06:23;2.27;;;1.40;;
1206;SDS011;593;53.184;8.216;2023-08-21T01:11:24;2.50;;;2.30;;
1206;SDS011;593;53.184;8.216;2023-08-21T01:16:31;2.30;;;2.10;;
1206;SDS011;593;53.184;8.216;2023-08-21T01:18:57;3.23;;;2.63;;
1206;SDS011;593;53.184;8.216;2023-08-21T01:21:24;2.53;;;2.30;;
1206;SDS011;593;53.184;8.216;2023-08-21T01:23:50;3.93;;;2.47;;
1206;SDS011;593;53.184;8.216;2023-08-21T01:26:15;4.47;;;2.57;;
1206;SDS011;593;53.184;8.216;2023-08-21T01:28:41;2.47;;;1.97;;
1206;SDS011;593;53.184;8.216;2023-08-21T01:31:11;2.23;;;1.97;;
1206;SDS011;593;53.184;8.216;2023-08-21T01:33:42;2.73;;;2.53;;
1206;SDS011;593;53.184;8.216;2023-08-21T01:36:12;2.70;;;1.60;;
1206;SDS011;593;53.184;8.216;2023-08-21T01:38:38;4.30;;;2.33;;
1206;SDS011;593;53.184;8.216;2023-08-21T01:41:03;3.97;;;2.20;;
1206;SDS011;593;53.184;8.216;2023-08-21T01:43:29;4.57;;;2.13;;
1206;SDS011;593;53.184;8.216;2023-08-21T01:45:54;3.40;;;2.30;;
1206;SDS011;593;53.184;8.216;2023-08-21T01:48:20;2.80;;;2.50;;
1206;SDS011;593;53.184;8.216;2023-08-21T01:50:45;4.03;;;2.60;;
1206;SDS011;593;53.184;8.216;2023-08-21T01:53:10;3.70;;;2.40;;
1206;SDS011;593;53.184;8.216;2023-08-21T01:55:36;3.20;;;2.40;;
1206;SDS011;593;53.184;8.216;2023-08-21T01:58:01;2.53;;;2.33;;
1206;SDS011;593;53.184;8.216;2023-08-21T02:00:26;3.07;;;2.83;;
1206;SDS011;593;53.184;8.216;2023-08-21T02:02:51;4.67;;;3.43;;
1206;SDS011;593;53.184;8.216;2023-08-21T02:05:17;3.13;;;2.63;;
1206;SDS011;593;53.184;8.216;2023-08-21T02:07:42;5.70;;;3.40;;
1206;SDS011;593;53.184;8.216;2023-08-21T02:10:07;4.03;;;3.30;;
1206;SDS011;593;53.184;8.216;2023-08-21T02:12:33;4.80;;;4.40;;
1206;SDS011;593;53.184;8.216;2023-08-21T02:14:58;4.20;;;3.67;;
1206;SDS011;593;53.184;8.216;2023-08-21T02:17:25;4.33;;;3.40;;
1206;SDS011;593;53.184;8.216;2023-08-21T02:19:51;5.20;;;3.97;;
1206;SDS011;593;53.184;8.216;2023-08-21T02:22:16;4.37;;;3.20;;
1206;SDS011;593;53.184;8.216;2023-08-21T02:24:41;3.87;;;3.53;;
1206;SDS011;593;53.184;8.216;2023-08-21T02:27:07;5.23;;;4.30;;
1206;SDS011;593;53.184;8.216;2023-08-21T02:29:32;4.10;;;3.30;;
1206;SDS011;593;53.184;8.216;2023-08-21T02:31:57;4.43;;;3.63;;
1206;SDS011;593;53.184;8.216;2023-08-21T02:34:23;4.83;;;3.90;;
1206;SDS011;593;53.184;8.216;2023-08-21T02:36:49;3.30;;;3.10;;
1206;SDS011;593;53.184;8.216;2023-08-21T02:39:14;4.77;;;2.90;;
1206;SDS011;593;53.184;8.216;2023-08-21T02:41:39;5.90;;;4.20;;
1206;SDS011;593;53.184;8.216;2023-08-21T02:44:04;4.53;;;3.40;;
1206;SDS011;593;53.184;8.216;2023-08-21T02:46:30;4.50;;;4.10;;
1206;SDS011;593;53.184;8.216;2023-08-21T02:48:55;4.20;;;3.90;;
1206;SDS011;593;53.184;8.216;2023-08-21T02:51:20;5.47;;;4.63;;
1206;SDS011;593;53.184;8.216;2023-08-21T02:53:45;7.90;;;4.10;;
1206;SDS011;593;53.184;8.216;2023-08-21T02:56:11;4.60;;;4.30;;
1206;SDS011;593;53.184;8.216;2023-08-21T02:58:36;4.40;;;4.00;;
1206;SDS011;593;53.184;8.216;2023-08-21T03:01:01;4.83;;;4.33;;
1206;SDS011;593;53.184;8.216;2023-08-21T03:03:27;5.37;;;4.70;;
1206;SDS011;593;53.184;8.216;2023-08-21T03:05:52;4.37;;;4.00;;
1206;SDS011;593;53.184;8.216;2023-08-21T03:08:17;5.13;;;4.63;;
1206;SDS011;593;53.184;8.216;2023-08-21T03:10:42;4.43;;;4.03;;
1206;SDS011;593;53.184;8.216;2023-08-21T03:13:08;5.20;;;4.47;;
1206;SDS011;593;53.184;8.216;2023-08-21T03:15:34;4.60;;;4.20;;
1206;SDS011;593;53.184;8.216;2023-08-21T03:18:00;10.57;;;4.60;;
1206;SDS011;593;53.184;8.216;2023-08-21T03:20:25;4.60;;;4.20;;
1206;SDS011;593;53.184;8.216;2023-08-21T03:22:50;4.30;;;4.00;;
1206;SDS011;593;53.184;8.216;2023-08-21T03:25:16;4.87;;;4.47;;
1206;SDS011;593;53.184;8.216;2023-08-21T03:27:41;5.10;;;4.37;;
1206;SDS011;593;53.184;8.216;2023-08-21T03:30:09;5.37;;;4.87;;
1206;SDS011;593;53.184;8.216;2023-08-21T03:32:35;3.83;;;3.53;;
1206;SDS011;593;53.184;8.216;2023-08-21T03:35:00;3.80;;;3.40;;
1206;SDS011;593;53.184;8.216;2023-08-21T03:37:26;3.90;;;3.63;;
1206;SDS011;593;53.184;8.216;2023-08-21T03:39:51;4.03;;;3.00;;
1206;SDS011;593;53.184;8.216;2023-08-21T03:42:16;6.10;;;4.40;;
1206;SDS011;593;53.184;8.216;2023-08-21T03:44:42;3.50;;;3.20;;
1206;SDS011;593;53.184;8.216;2023-08-21T03:47:08;3.90;;;3.40;;
1206;SDS011;593;53.184;8.216;2023-08-21T03:49:33;3.10;;;2.90;;
1206;SDS011;593;53.184;8.216;2023-08-21T03:51:59;4.23;;;3.83;;
1206;SDS011;593;53.184;8.216;2023-08-21T03:54:24;5.70;;;3.10;;
1206;SDS011;593;53.184;8.216;2023-08-21T03:56:49;3.97;;;3.67;;
1206;SDS011;593;53.184;8.216;2023-08-21T03:59:15;3.90;;;3.60;;
1206;SDS011;593;53.184;8.216;2023-08-21T04:01:40;4.40;;;4.00;;
1206;SDS011;593;53.184;8.216;2023-08-21T04:04:05;4.97;;;4.10;;
1206;SDS011;593;53.184;8.216;2023-08-21T04:06:30;5.13;;;4.60;;
1206;SDS011;593;53.184;8.216;2023-08-21T04:08:56;4.20;;;3.90;;
1206;SDS011;593;53.184;8.216;2023-08-21T04:11:21;4.57;;;3.80;;
1206;SDS011;593;53.184;8.216;2023-08-21T04:13:46;5.40;;;4.23;;
1206;SDS011;593;53.184;8.216;2023-08-21T04:16:11;3.30;;;3.10;;
1206;SDS011;593;53.184;8.216;2023-08-21T04:18:37;4.03;;;3.70;;
1206;SDS011;593;53.184;8.216;2023-08-21T04:21:03;5.90;;;3.00;;
1206;SDS011;593;53.184;8.216;2023-08-21T04:23:29;5.97;;;3.70;;
1206;SDS011;593;53.184;8.216;2023-08-21T04:25:59;6.00;;;3.63;;
1206;SDS011;593;53.184;8.216;2023-08-21T04:28:26;4.40;;;3.80;;
1206;SDS011;593;53.184;8.216;2023-08-21T04:30:51;4.07;;;3.77;;
1206;SDS011;593;53.184;8.216;2023-08-21T04:33:17;3.00;;;2.80;;
1206;SDS011;593;53.184;8.216;2023-08-21T04:35:42;3.87;;;2.70;;
1206;SDS011;593;53.184;8.216;2023-08-21T04:38:07;3.70;;;3.40;;
1206;SDS011;593;53.184;8.216;2023-08-21T04:40:33;4.87;;;4.43;;
1206;SDS011;593;53.184;8.216;2023-08-21T04:42:58;5.20;;;4.70;;
1206;SDS011;593;53.184;8.216;2023-08-21T04:45:23;4.53;;;4.13;;
1206;SDS011;593;53.184;8.216;2023-08-21T04:47:48;7.50;;;4.60;;
1206;SDS011;593;53.184;8.216;2023-08-21T04:50:14;3.90;;;3.67;;
1206;SDS011;593;53.184;8.216;2023-08-21T04:52:40;4.23;;;3.90;;
1206;SDS011;593;53.184;8.216;2023-08-21T04:55:06;4.53;;;3.80;;
1206;SDS011;593;53.184;8.216;2023-08-21T04:57:32;4.80;;;4.30;;
1206;SDS011;593;53.184;8.216;2023-08-21T04:59:57;6.73;;;4.57;;
1206;SDS011;593;53.184;8.216;2023-08-21T05:02:22;3.90;;;3.60;;
1206;SDS011;593;53.184;8.216;2023-08-21T05:04:47;4.20;;;3.80;;
1206;SDS011;593;53.184;8.216;2023-08-21T05:07:13;3.73;;;3.43;;
1206;SDS011;593;53.184;8.216;2023-08-21T05:09:38;4.17;;;3.87;;
1206;SDS011;593;53.184;8.216;2023-08-21T05:12:04;4.40;;;4.00;;
1206;SDS011;593;53.184;8.216;2023-08-21T05:14:30;6.10;;;5.10;;
1206;SDS011;593;53.184;8.216;2023-08-21T05:16:55;6.40;;;5.83;;
1206;SDS011;593;53.184;8.216;2023-08-21T05:19:21;6.63;;;5.30;;
1206;SDS011;593;53.184;8.216;2023-08-21T05:21:46;6.63;;;4.43;;
1206;SDS011;593;53.184;8.216;2023-08-21T05:24:11;5.40;;;5.00;;
1206;SDS011;593;53.184;8.216;2023-08-21T05:26:37;6.00;;;5.50;;
1206;SDS011;593;53.184;8.216;2023-08-21T05:29:03;5.27;;;4.77;;
1206;SDS011;593;53.184;8.216;2023-08-21T05:31:28;5.50;;;5.00;;
1206;SDS011;593;53.184;8.216;2023-08-21T05:33:54;5.80;;;5.30;;
1206;SDS011;593;53.184;8.216;2023-08-21T05:36:19;4.90;;;4.40;;
1206;SDS011;593;53.184;8.216;2023-08-21T05:38:45;6.03;;;5.53;;
1206;SDS011;593;53.184;8.216;2023-08-21T05:41:12;6.70;;;6.10;;
1206;SDS011;593;53.184;8.216;2023-08-21T05:43:38;5.43;;;4.83;;
1206;SDS011;593;53.184;8.216;2023-08-21T05:46:05;5.67;;;5.17;;
1206;SDS011;593;53.184;8.216;2023-08-21T05:48:31;6.43;;;5.83;;
1206;SDS011;593;53.184;8.216;2023-08-21T05:50:56;6.87;;;6.27;;
1206;SDS011;593;53.184;8.216;2023-08-21T05:53:22;6.37;;;5.87;;
1206;SDS011;593;53.184;8.216;2023-08-21T05:55:47;5.53;;;5.10;;
1206;SDS011;593;53.184;8.216;2023-08-21T05:58:13;7.30;;;5.40;;
1206;SDS011;593;53.184;8.216;2023-08-21T06:00:38;7.47;;;5.53;;
1206;SDS011;593;53.184;8.216;2023-08-21T06:03:04;7.37;;;6.60;;
1206;SDS011;593;53.184;8.216;2023-08-21T06:05:29;7.50;;;6.80;;
1206;SDS011;593;53.184;8.216;2023-08-21T06:07:55;6.40;;;5.73;;
1206;SDS011;593;53.184;8.216;2023-08-21T06:10:20;5.63;;;4.97;;
1206;SDS011;593;53.184;8.216;2023-08-21T06:12:46;8.90;;;6.30;;
1206;SDS011;593;53.184;8.216;2023-08-21T06:15:13;8.57;;;5.70;;
1206;SDS011;593;53.184;8.216;2023-08-21T06:17:38;6.17;;;5.57;;
1206;SDS011;593;53.184;8.216;2023-08-21T06:20:04;6.83;;;6.17;;
1206;SDS011;593;53.184;8.216;2023-08-21T06:22:34;7.70;;;7.00;;
1206;SDS011;593;53.184;8.216;2023-08-21T06:25:00;6.60;;;6.00;;
1206;SDS011;593;53.184;8.216;2023-08-21T06:27:25;8.07;;;5.90;;
1206;SDS011;593;53.184;8.216;2023-08-21T06:29:50;8.40;;;6.70;;
1206;SDS011;593;53.184;8.216;2023-08-21T06:32:16;6.80;;;5.43;;
1206;SDS011;593;53.184;8.216;2023-08-21T06:34:41;11.97;;;6.10;;
1206;SDS011;593;53.184;8.216;2023-08-21T06:37:06;12.60;;;7.33;;
1206;SDS011;593;53.184;8.216;2023-08-21T06:39:32;6.00;;;5.20;;
1206;SDS011;593;53.184;8.216;2023-08-21T06:41:59;7.63;;;5.00;;
1206;SDS011;593;53.184;8.216;2023-08-21T06:44:25;9.77;;;5.93;;
1206;SDS011;593;53.184;8.216;2023-08-21T06:46:50;8.70;;;5.40;;
1206;SDS011;593;53.184;8.216;2023-08-21T06:49:15;6.53;;;4.90;;
1206;SDS011;593;53.184;8.216;2023-08-21T06:51:41;5.90;;;4.37;;
1206;SDS011;593;53.184;8.216;2023-08-21T06:54:06;7.07;;;4.17;;
1206;SDS011;593;53.184;8.216;2023-08-21T06:56:31;8.77;;;4.23;;
1206;SDS011;593;53.184;8.216;2023-08-21T06:58:57;6.77;;;4.20;;
1206;SDS011;593;53.184;8.216;2023-08-21T07:01:22;4.83;;;3.70;;
1206;SDS011;593;53.184;8.216;2023-08-21T07:03:48;6.10;;;4.20;;
1206;SDS011;593;53.184;8.216;2023-08-21T07:06:14;4.90;;;3.70;;
1206;SDS011;593;53.184;8.216;2023-08-21T07:08:39;5.67;;;3.17;;
1206;SDS011;593;53.184;8.216;2023-08-21T07:11:05;10.57;;;4.00;;
1206;SDS011;593;53.184;8.216;2023-08-21T07:13:32;4.03;;;3.73;;
1206;SDS011;593;53.184;8.216;2023-08-21T07:15:58;4.47;;;2.50;;
1206;SDS011;593;53.184;8.216;2023-08-21T07:18:23;4.03;;;2.33;;
1206;SDS011;593;53.184;8.216;2023-08-21T07:20:51;5.43;;;1.83;;
1206;SDS011;593;53.184;8.216;2023-08-21T07:23:17;3.00;;;2.47;;
1206;SDS011;593;53.184;8.216;2023-08-21T07:25:42;4.47;;;1.90;;
1206;SDS011;593;53.184;8.216;2023-08-21T07:28:07;3.20;;;1.53;;
1206;SDS011;593;53.184;8.216;2023-08-21T07:30:32;3.43;;;1.23;;
1206;SDS011;593;53.184;8.216;2023-08-21T07:32:58;1.30;;;1.00;;
1206;SDS011;593;53.184;8.216;2023-08-21T07:35:23;3.00;;;1.40;;
1206;SDS011;593;53.184;8.216;2023-08-21T07:37:48;2.50;;;1.10;;
1206;SDS011;593;53.184;8.216;2023-08-21T07:40:14;4.97;;;1.33;;
1206;SDS011;593;53.184;8.216;2023-08-21T07:42:40;3.13;;;1.20;;
1206;SDS011;593;53.184;8.216;2023-08-21T07:45:06;2.23;;;0.80;;
1206;SDS011;593;53.184;8.216;2023-08-21T07:47:32;2.50;;;1.27;;
1206;SDS011;593;53.184;8.216;2023-08-21T07:49:57;2.20;;;1.57;;
1206;SDS011;593;53.184;8.216;2023-08-21T07:52:23;1.77;;;0.90;;
1206;SDS011;593;53.184;8.216;2023-08-21T07:54:54;1.77;;;0.90;;
1206;SDS011;593;53.184;8.216;2023-08-21T07:57:19;1.93;;;0.90;;
1206;SDS011;593;53.184;8.216;2023-08-21T07:59:45;1.47;;;0.80;;
1206;SDS011;593;53.184;8.216;2023-08-21T08:02:10;4.83;;;1.63;;
1206;SDS011;593;53.184;8.216;2023-08-21T08:04:39;3.67;;;1.20;;
1206;SDS011;593;53.184;8.216;2023-08-21T08:07:04;1.47;;;0.80;;
1206;SDS011;593;53.184;8.216;2023-08-21T08:09:30;2.13;;;0.90;;
1206;SDS011;593;53.184;8.216;2023-08-21T08:11:55;1.10;;;0.73;;
1206;SDS011;593;53.184;8.216;2023-08-21T08:14:20;2.83;;;0.77;;
1206;SDS011;593;53.184;8.216;2023-08-21T08:16:46;3.30;;;1.10;;
1206;SDS011;593;53.184;8.216;2023-08-21T08:19:11;2.57;;;0.80;;
1206;SDS011;593;53.184;8.216;2023-08-21T08:21:36;1.43;;;0.87;;
1206;SDS011;593;53.184;8.216;2023-08-21T08:24:02;1.63;;;0.90;;
1206;SDS011;593;53.184;8.216;2023-08-21T08:26:27;0.90;;;0.70;;
1206;SDS011;593;53.184;8.216;2023-08-21T08:28:52;2.70;;;1.03;;
1206;SDS011;593;53.184;8.216;2023-08-21T08:31:18;1.47;;;0.80;;
1206;SDS011;593;53.184;8.216;2023-08-21T08:33:44;2.03;;;0.90;;
1206;SDS011;593;53.184;8.216;2023-08-21T08:36:09;3.13;;;0.97;;
1206;SDS011;593;53.184;8.216;2023-08-21T08:38:35;1.87;;;0.97;;
1206;SDS011;593;53.184;8.216;2023-08-21T08:41:01;2.53;;;0.90;;
1206;SDS011;593;53.184;8.216;2023-08-21T08:43:27;1.23;;;0.70;;
1206;SDS011;593;53.184;8.216;2023-08-21T08:45:54;3.70;;;0.80;;
1206;SDS011;593;53.184;8.216;2023-08-21T08:48:21;2.33;;;0.70;;
1206;SDS011;593;53.184;8.216;2023-08-21T08:50:47;2.27;;;0.90;;
1206;SDS011;593;53.184;8.216;2023-08-21T08:53:15;1.37;;;0.70;;
1206;SDS011;593;53.184;8.216;2023-08-21T08:55:41;1.37;;;0.73;;
1206;SDS011;593;53.184;8.216;2023-08-21T08:58:06;3.13;;;0.80;;
1206;SDS011;593;53.184;8.216;2023-08-21T09:00:31;0.90;;;0.70;;
1206;SDS011;593;53.184;8.216;2023-08-21T09:02:57;2.00;;;0.70;;
1206;SDS011;593;53.184;8.216;2023-08-21T09:05:22;1.60;;;0.63;;
1206;SDS011;593;53.184;8.216;2023-08-21T09:08:01;1.40;;;1.10;;
1206;SDS011;593;53.184;8.216;2023-08-21T09:10:28;1.57;;;0.70;;
1206;SDS011;593;53.184;8.216;2023-08-21T09:12:53;1.67;;;0.70;;
1206;SDS011;593;53.184;8.216;2023-08-21T09:15:18;0.80;;;0.80;;
1206;SDS011;593;53.184;8.216;2023-08-21T09:17:44;3.40;;;0.90;;
1206;SDS011;593;53.184;8.216;2023-08-21T09:20:18;1.50;;;0.70;;
1206;SDS011;593;53.184;8.216;2023-08-21T09:22:52;2.60;;;1.77;;
1206;SDS011;593;53.184;8.216;2023-08-21T09:25:20;1.20;;;0.90;;
1206;SDS011;593;53.184;8.216;2023-08-21T09:27:45;1.23;;;0.70;;
1206;SDS011;593;53.184;8.216;2023-08-21T09:30:11;3.50;;;0.80;;
1206;SDS011;593;53.184;8.216;2023-08-21T09:35:24;3.23;;;0.90;;
1206;SDS011;593;53.184;8.216;2023-08-21T09:37:51;2.00;;;0.67;;
1206;SDS011;593;53.184;8.216;2023-08-21T09:40:18;0.83;;;0.60;;
1206;SDS011;593;53.184;8.216;2023-08-21T09:42:45;1.10;;;0.63;;
1206;SDS011;593;53.184;8.216;2023-08-21T09:45:12;1.90;;;1.03;;
1206;SDS011;593;53.184;8.216;2023-08-21T09:47:38;1.63;;;0.80;;
1206;SDS011;593;53.184;8.216;2023-08-21T09:50:05;1.20;;;0.80;;
1206;SDS011;593;53.184;8.216;2023-08-21T09:52:30;1.67;;;0.80;;
1206;SDS011;593;53.184;8.216;2023-08-21T09:54:56;2.00;;;0.77;;
1206;SDS011;593;53.184;8.216;2023-08-21T09:57:23;1.87;;;0.70;;
1206;SDS011;593;53.184;8.216;2023-08-21T09:59:52;1.83;;;0.90;;
1206;SDS011;593;53.184;8.216;2023-08-21T10:02:21;1.27;;;0.70;;
1206;SDS011;593;53.184;8.216;2023-08-21T10:04:48;1.37;;;0.60;;
1206;SDS011;593;53.184;8.216;2023-08-21T10:07:15;1.03;;;0.80;;
1206;SDS011;593;53.184;8.216;2023-08-21T10:09:45;1.53;;;0.87;;
1206;SDS011;593;53.184;8.216;2023-08-21T10:12:12;1.67;;;0.60;;
1206;SDS011;593;53.184;8.216;2023-08-21T10:14:39;2.03;;;1.20;;
1206;SDS011;593;53.184;8.216;2023-08-21T10:17:06;2.30;;;0.80;;
1206;SDS011;593;53.184;8.216;2023-08-21T10:19:33;1.10;;;0.60;;
1206;SDS011;593;53.184;8.216;2023-08-21T10:22:00;1.37;;;0.63;;
1206;SDS011;593;53.184;8.216;2023-08-21T10:24:28;1.60;;;1.00;;
1206;SDS011;593;53.184;8.216;2023-08-21T10:26:59;0.70;;;0.60;;
1206;SDS011;593;53.184;8.216;2023-08-21T10:29:25;3.80;;;1.10;;
1206;SDS011;593;53.184;8.216;2023-08-21T10:32:00;1.20;;;0.70;;
1206;SDS011;593;53.184;8.216;2023-08-21T10:34:36;1.53;;;0.90;;
1206;SDS011;593;53.184;8.216;2023-08-21T10:37:04;3.00;;;0.80;;
1206;SDS011;593;53.184;8.216;2023-08-21T10:39:31;2.00;;;1.00;;
1206;SDS011;593;53.184;8.216;2023-08-21T10:42:08;3.67;;;0.80;;
1206;SDS011;593;53.184;8.216;2023-08-21T10:49:41;1.47;;;0.60;;
1206;SDS011;593;53.184;8.216;2023-08-21T10:52:08;1.60;;;1.00;;
1206;SDS011;593;53.184;8.216;2023-08-21T10:54:47;1.30;;;0.73;;
1206;SDS011;593;53.184;8.216;2023-08-21T10:57:13;0.80;;;0.60;;
1206;SDS011;593;53.184;8.216;2023-08-21T10:59:38;1.20;;;0.60;;
1206;SDS011;593;53.184;8.216;2023-08-21T11:02:14;1.07;;;0.73;;
1206;SDS011;593;53.184;8.216;2023-08-21T11:04:40;0.80;;;0.80;;
1206;SDS011;593;53.184;8.216;2023-08-21T11:07:06;0.80;;;0.60;;
1206;SDS011;593;53.184;8.216;2023-08-21T11:09:32;2.70;;;1.10;;
1206;SDS011;593;53.184;8.216;2023-08-21T11:12:04;1.93;;;0.80;;
1206;SDS011;593;53.184;8.216;2023-08-21T11:14:40;0.90;;;0.70;;
1206;SDS011;593;53.184;8.216;2023-08-21T11:17:06;1.37;;;0.60;;
1206;SDS011;593;53.184;8.216;2023-08-21T11:19:33;1.33;;;0.70;;
1206;SDS011;593;53.184;8.216;2023-08-21T11:21:59;0.97;;;0.57;;
1206;SDS011;593;53.184;8.216;2023-08-21T11:27:24;1.43;;;0.60;;
1206;SDS011;593;53.184;8.216;2023-08-21T11:29:49;0.80;;;0.60;;
1206;SDS011;593;53.184;8.216;2023-08-21T11:32:17;0.80;;;0.60;;
1206;SDS011;593;53.184;8.216;2023-08-21T11:34:55;1.87;;;0.60;;
1206;SDS011;593;53.184;8.216;2023-08-21T11:37:24;0.80;;;0.80;;
1206;SDS011;593;53.184;8.216;2023-08-21T11:39:52;1.50;;;0.90;;
1206;SDS011;593;53.184;8.216;2023-08-21T11:42:20;1.43;;;0.60;;
1206;SDS011;593;53.184;8.216;2023-08-21T11:44:47;0.70;;;0.60;;
1206;SDS011;593;53.184;8.216;2023-08-21T11:47:17;0.90;;;0.60;;
1206;SDS011;593;53.184;8.216;2023-08-21T11:49:44;5.00;;;0.73;;
1206;SDS011;593;53.184;8.216;2023-08-21T11:52:21;2.70;;;0.70;;
1206;SDS011;593;53.184;8.216;2023-08-21T11:54:49;1.13;;;0.73;;
1206;SDS011;593;53.184;8.216;2023-08-21T11:57:16;0.80;;;0.60;;
1206;SDS011;593;53.184;8.216;2023-08-21T11:59:42;1.47;;;0.70;;
1206;SDS011;593;53.184;8.216;2023-08-21T12:02:09;2.57;;;0.80;;
1206;SDS011;593;53.184;8.216;2023-08-21T12:04:34;1.03;;;0.60;;
1206;SDS011;593;53.184;8.216;2023-08-21T12:07:00;3.47;;;1.00;;
1206;SDS011;593;53.184;8.216;2023-08-21T12:09:25;1.43;;;0.70;;
1206;SDS011;593;53.184;8.216;2023-08-21T12:11:51;2.80;;;0.70;;
1206;SDS011;593;53.184;8.216;2023-08-21T12:14:17;0.70;;;0.60;;
1206;SDS011;593;53.184;8.216;2023-08-21T12:16:42;1.47;;;0.70;;
1206;SDS011;593;53.184;8.216;2023-08-21T12:19:07;2.60;;;0.87;;
1206;SDS011;593;53.184;8.216;2023-08-21T12:21:34;2.10;;;0.70;;
1206;SDS011;593;53.184;8.216;2023-08-21T12:24:02;0.80;;;0.60;;
1206;SDS011;593;53.184;8.216;2023-08-21T12:26:28;1.67;;;0.60;;
1206;SDS011;593;53.184;8.216;2023-08-21T12:28:54;2.40;;;0.80;;
1206;SDS011;593;53.184;8.216;2023-08-21T12:31:19;1.23;;;0.70;;
1206;SDS011;593;53.184;8.216;2023-08-21T12:33:44;2.47;;;0.73;;
1206;SDS011;593;53.184;8.216;2023-08-21T12:36:09;1.23;;;0.70;;
1206;SDS011;593;53.184;8.216;2023-08-21T12:38:35;1.97;;;1.10;;
1206;SDS011;593;53.184;8.216;2023-08-21T12:41:03;4.07;;;1.43;;
1206;SDS011;593;53.184;8.216;2023-08-21T12:43:28;1.13;;;0.73;;
1206;SDS011;593;53.184;8.216;2023-08-21T12:45:55;1.10;;;0.80;;
1206;SDS011;593;53.184;8.216;2023-08-21T12:48:20;2.60;;;1.00;;
1206;SDS011;593;53.184;8.216;2023-08-21T12:50:46;1.10;;;0.70;;
1206;SDS011;593;53.184;8.216;2023-08-21T12:53:11;1.83;;;0.80;;
1206;SDS011;593;53.184;8.216;2023-08-21T12:55:36;2.30;;;0.70;;
1206;SDS011;593;53.184;8.216;2023-08-21T12:58:02;1.10;;;0.60;;
1206;SDS011;593;53.184;8.216;2023-08-21T13:00:28;1.33;;;0.90;;
1206;SDS011;593;53.184;8.216;2023-08-21T13:02:54;2.60;;;0.97;;
1206;SDS011;593;53.184;8.216;2023-08-21T13:05:19;1.20;;;0.90;;
1206;SDS011;593;53.184;8.216;2023-08-21T13:07:45;1.27;;;0.70;;
1206;SDS011;593;53.184;8.216;2023-08-21T13:10:10;0.90;;;0.70;;
1206;SDS011;593;53.184;8.216;2023-08-21T13:12:36;0.90;;;0.63;;
1206;SDS011;593;53.184;8.216;2023-08-21T13:15:01;1.10;;;0.70;;
1206;SDS011;593;53.184;8.216;2023-08-21T13:17:27;1.10;;;0.73;;
1206;SDS011;593;53.184;8.216;2023-08-21T13:19:53;1.47;;;0.70;;
1206;SDS011;593;53.184;8.216;2023-08-21T13:22:18;1.40;;;0.70;;
1206;SDS011;593;53.184;8.216;2023-08-21T13:24:43;1.00;;;0.60;;
1206;SDS011;593;53.184;8.216;2023-08-21T13:27:09;0.80;;;0.80;;
1206;SDS011;593;53.184;8.216;2023-08-21T13:29:34;1.50;;;0.70;;
1206;SDS011;593;53.184;8.216;2023-08-21T13:32:00;0.70;;;0.67;;
1206;SDS011;593;53.184;8.216;2023-08-21T13:34:25;1.00;;;0.80;;
1206;SDS011;593;53.184;8.216;2023-08-21T13:36:50;1.63;;;0.70;;
1206;SDS011;593;53.184;8.216;2023-08-21T13:39:16;1.50;;;0.77;;
1206;SDS011;593;53.184;8.216;2023-08-21T13:41:41;1.20;;;0.70;;
1206;SDS011;593;53.184;8.216;2023-08-21T13:44:07;4.60;;;1.73;;
1206;SDS011;593;53.184;8.216;2023-08-21T13:46:33;1.77;;;0.60;;
1206;SDS011;593;53.184;8.216;2023-08-21T13:48:58;1.07;;;0.70;;
1206;SDS011;593;53.184;8.216;2023-08-21T13:51:24;1.63;;;0.90;;
1206;SDS011;593;53.184;8.216;2023-08-21T13:53:49;0.80;;;0.60;;
1206;SDS011;593;53.184;8.216;2023-08-21T13:56:14;1.00;;;0.70;;
1206;SDS011;593;53.184;8.216;2023-08-21T13:58:39;0.70;;;0.60;;
1206;SDS011;593;53.184;8.216;2023-08-21T14:01:05;3.83;;;0.70;;
1206;SDS011;593;53.184;8.216;2023-08-21T14:03:32;0.70;;;0.60;;
1206;SDS011;593;53.184;8.216;2023-08-21T14:05:57;1.70;;;0.70;;
1206;SDS011;593;53.184;8.216;2023-08-21T14:08:22;1.10;;;0.90;;
1206;SDS011;593;53.184;8.216;2023-08-21T14:10:47;1.03;;;0.90;;
1206;SDS011;593;53.184;8.216;2023-08-21T14:13:13;0.90;;;0.70;;
1206;SDS011;593;53.184;8.216;2023-08-21T14:15:38;1.10;;;0.80;;
1206;SDS011;593;53.184;8.216;2023-08-21T14:18:03;0.90;;;0.63;;
1206;SDS011;593;53.184;8.216;2023-08-21T14:20:29;1.77;;;0.73;;
1206;SDS011;593;53.184;8.216;2023-08-21T14:22:55;0.90;;;0.70;;
1206;SDS011;593;53.184;8.216;2023-08-21T14:25:20;2.10;;;0.70;;
1206;SDS011;593;53.184;8.216;2023-08-21T14:27:45;1.43;;;0.77;;
1206;SDS011;593;53.184;8.216;2023-08-21T14:30:12;1.00;;;0.60;;
1206;SDS011;593;53.184;8.216;2023-08-21T14:32:37;1.57;;;0.70;;
1206;SDS011;593;53.184;8.216;2023-08-21T14:35:03;1.00;;;0.67;;
1206;SDS011;593;53.184;8.216;2023-08-21T14:37:29;1.00;;;0.60;;
1206;SDS011;593;53.184;8.216;2023-08-21T14:39:55;1.13;;;0.70;;
1206;SDS011;593;53.184;8.216;2023-08-21T14:42:21;2.87;;;0.97;;
1206;SDS011;593;53.184;8.216;2023-08-21T14:44:47;1.27;;;0.80;;
1206;SDS011;593;53.184;8.216;2023-08-21T14:47:12;2.83;;;1.00;;
1206;SDS011;593;53.184;8.216;2023-08-21T14:49:37;2.20;;;0.73;;
1206;SDS011;593;53.184;8.216;2023-08-21T14:52:03;0.80;;;0.70;;
1206;SDS011;593;53.184;8.216;2023-08-21T14:54:28;0.70;;;0.50;;
1206;SDS011;593;53.184;8.216;2023-08-21T14:56:53;0.87;;;0.87;;
1206;SDS011;593;53.184;8.216;2023-08-21T14:59:19;0.90;;;0.90;;
1206;SDS011;593;53.184;8.216;2023-08-21T15:01:44;1.97;;;0.77;;
1206;SDS011;593;53.184;8.216;2023-08-21T15:04:09;2.20;;;0.80;;
1206;SDS011;593;53.184;8.216;2023-08-21T15:06:34;2.13;;;0.70;;
1206;SDS011;593;53.184;8.216;2023-08-21T15:09:00;1.70;;;0.70;;
1206;SDS011;593;53.184;8.216;2023-08-21T15:11:26;1.17;;;0.60;;
1206;SDS011;593;53.184;8.216;2023-08-21T15:13:52;1.57;;;1.10;;
1206;SDS011;593;53.184;8.216;2023-08-21T15:16:17;1.27;;;0.60;;
1206;SDS011;593;53.184;8.216;2023-08-21T15:18:42;1.83;;;0.70;;
1206;SDS011;593;53.184;8.216;2023-08-21T15:21:07;1.00;;;0.70;;
1206;SDS011;593;53.184;8.216;2023-08-21T15:23:33;1.90;;;0.70;;
1206;SDS011;593;53.184;8.216;2023-08-21T15:25:58;1.87;;;0.60;;
1206;SDS011;593;53.184;8.216;2023-08-21T15:28:23;0.80;;;0.70;;
1206;SDS011;593;53.184;8.216;2023-08-21T15:30:49;0.80;;;0.60;;
1206;SDS011;593;53.184;8.216;2023-08-21T15:33:14;0.73;;;0.73;;
1206;SDS011;593;53.184;8.216;2023-08-21T15:35:39;1.47;;;0.70;;
1206;SDS011;593;53.184;8.216;2023-08-21T15:38:04;1.00;;;0.60;;